Invader — WDC6283 — position and weather

sailwx.info

Track history (hours):
 
Tides and Currents Weather Stations Pressure Air Temp Water Temp Dewpoint Dewpoint Depression Visibility Wind Speed Wind Dir Waves Ship Positions

Invader

Owner: Nautical Investiment Corporation, Amelia, LA. More information available from US FCC via Universal Licensing System and Coast Guard Vessel Documentation Center.

Last reported at 2014-Nov-01 07:33 UTC. Time now 2014-Nov-01 08:21 UTC.
Position N 29°41' W 091°13'.

Length 40 m; draft 3 m.

Type: Passenger vessel. MMSI: 367053990.

Date/timePositionNaut miles runAvg speedWind from/ knotsBaromVisibWave heightAir tempDewpointWater temp
2014-Nov-01 07:33N 29°41' W 091°13'1 0.9
2014-Nov-01 06:33N 29°41' W 091°12'0 0.0
2014-Nov-01 05:33N 29°41' W 091°12'2 2.0
2014-Nov-01 04:33N 29°40' W 091°14'1313.0
2014-Nov-01 03:32N 29°27' W 091°17'19 1.0
2014-Oct-31 08:04N 29°12' W 091°30'1019.4
2014-Oct-31 07:33N 29°21' W 091°24'1817.8
2014-Oct-31 06:34N 29°37' W 091°15'5 5.4
2014-Oct-31 05:34N 29°41' W 091°12'0 0.0
2014-Oct-31 04:34N 29°41' W 091°12'0 0.0
2014-Oct-31 03:34N 29°41' W 091°12'0 0.0
2014-Oct-31 02:34N 29°41' W 091°12'0 0.0
2014-Oct-31 01:33N 29°41' W 091°12'0 0.0
2014-Oct-31 00:33N 29°41' W 091°12'1 0.8
2014-Oct-30 23:33N 29°41' W 091°13'1211.6
2014-Oct-30 22:32N 29°30' W 091°16'14 0.9
2014-Oct-30 07:28N 29°19' W 091°26'1617.4
2014-Oct-30 06:33N 29°32' W 091°16'10 9.9
2014-Oct-30 05:33N 29°41' W 091°12'0 0.0
2014-Oct-30 04:33N 29°41' W 091°12'0 0.0
2014-Oct-30 03:33N 29°41' W 091°12'0 0.0
2014-Oct-30 02:33N 29°41' W 091°12'0 0.0
2014-Oct-30 01:33N 29°41' W 091°12'0 0.0
2014-Oct-30 00:33N 29°41' W 091°12'2 2.1
2014-Oct-29 23:34N 29°40' W 091°14'1212.0
2014-Oct-29 22:34N 29°28' W 091°17'8 0.5
2014-Oct-29 08:13N 29°23' W 091°23'1015.2
2014-Oct-29 07:33N 29°31' W 091°16'9 9.1
2014-Oct-29 06:33N 29°40' W 091°14'0 0.1
2014-Oct-29 05:34N 29°40' W 091°14'2 2.4
2014-Oct-29 04:33N 29°41' W 091°12'0 0.0
2014-Oct-29 03:33N 29°41' W 091°12'0 0.0
2014-Oct-29 02:33N 29°41' W 091°12'0 0.0
2014-Oct-29 01:33N 29°41' W 091°12'0 0.0
2014-Oct-29 00:33N 29°41' W 091°12'2 2.4
2014-Oct-28 23:33N 29°40' W 091°14'1514.8
2014-Oct-28 22:33N 29°26' W 091°20'17 1.3
2014-Oct-28 09:25N 29°12' W 091°30'1618.6
2014-Oct-28 08:33N 29°26' W 091°20'1515.3
2014-Oct-28 07:33N 29°40' W 091°14'3 2.5
2014-Oct-28 06:33N 29°41' W 091°12'3 3.0
2014-Oct-28 05:33N 29°39' W 091°14'1413.9
2014-Oct-28 04:33N 29°26' W 091°20'9 0.4
2014-Oct-27 07:30N 29°19' W 091°26'1617.3
2014-Oct-27 06:34N 29°33' W 091°15'9 9.2
2014-Oct-27 05:34N 29°41' W 091°12'0 0.1
2014-Oct-27 04:33N 29°41' W 091°12'0 0.0
2014-Oct-27 03:33N 29°41' W 091°12'0 0.0
2014-Oct-27 02:33N 29°41' W 091°12'0 0.0
2014-Oct-27 01:33N 29°41' W 091°12'0 0.0
2014-Oct-27 00:33N 29°41' W 091°12'0 0.0
2014-Oct-26 23:33N 29°41' W 091°12'0 0.0
2014-Oct-26 22:33N 29°41' W 091°12'0 0.0
2014-Oct-26 21:33N 29°41' W 091°12'0 0.0
2014-Oct-26 20:33N 29°41' W 091°12'0 0.0
2014-Oct-26 19:33N 29°41' W 091°12'1 1.2
2014-Oct-26 18:33N 29°41' W 091°13'1010.5
2014-Oct-26 17:34N 29°31' W 091°16'1514.9
2014-Oct-26 16:33N 29°19' W 091°26'2018.4
2014-Oct-26 15:29N 28°59' W 091°30'2 0.2
2014-Oct-26 08:30N 28°58' W 091°32'1718.3
2014-Oct-26 07:33N 29°16' W 091°29'1615.7
2014-Oct-26 06:33N 29°27' W 091°17'1313.0
2014-Oct-26 05:34N 29°40' W 091°14'2 2.3
2014-Oct-26 04:33N 29°41' W 091°12'0 0.0
2014-Oct-26 03:33N 29°41' W 091°12'0 0.0
2014-Oct-26 02:33N 29°41' W 091°12'0 0.0
2014-Oct-26 01:33N 29°41' W 091°12'0 0.0
2014-Oct-26 00:33N 29°41' W 091°12'0 0.0
2014-Oct-25 23:33N 29°41' W 091°12'2 2.5
2014-Oct-25 22:33N 29°40' W 091°14'2 2.1
2014-Oct-25 21:33N 29°41' W 091°12'0 0.4
2014-Oct-25 20:33N 29°41' W 091°12'10 9.8
2014-Oct-25 19:33N 29°32' W 091°16'16 1.4
2014-Oct-25 08:33N 29°19' W 091°26'1919.3
2014-Oct-25 07:34N 29°35' W 091°14'7 6.6
2014-Oct-25 06:33N 29°41' W 091°12'0 0.0
2014-Oct-25 05:33N 29°41' W 091°12'0 0.0
2014-Oct-25 04:33N 29°41' W 091°12'0 0.0
2014-Oct-25 03:34N 29°41' W 091°12'0 0.0
2014-Oct-25 02:33N 29°41' W 091°12'0 0.0
2014-Oct-25 01:33N 29°41' W 091°12'1 0.9
2014-Oct-25 00:33N 29°41' W 091°13'1312.8
2014-Oct-24 23:34N 29°29' W 091°16'21 1.4
2014-Oct-24 08:24N 29°12' W 091°30'1618.5
2014-Oct-24 07:33N 29°25' W 091°21'1514.6
2014-Oct-24 06:34N 29°38' W 091°14'4 3.6
2014-Oct-24 05:33N 29°41' W 091°12'0 0.0
2014-Oct-24 04:34N 29°41' W 091°12'0 0.0
2014-Oct-24 03:34N 29°41' W 091°12'0 0.0
2014-Oct-24 02:33N 29°41' W 091°12'0 0.0
2014-Oct-24 01:34N 29°41' W 091°12'0 0.0
2014-Oct-24 00:33N 29°41' W 091°12'0 0.0
2014-Oct-23 23:34N 29°41' W 091°12'0 0.0
2014-Oct-23 22:33N 29°41' W 091°12'0 0.0
2014-Oct-23 21:33N 29°41' W 091°12'0 0.0
2014-Oct-23 20:34N 29°41' W 091°12'0 0.0
2014-Oct-23 19:33N 29°41' W 091°12'0 0.0
2014-Oct-23 18:34N 29°41' W 091°12'0 0.0
2014-Oct-23 17:34N 29°41' W 091°12'0 0.0
2014-Oct-23 16:33N 29°41' W 091°12'7 6.9
2014-Oct-23 15:33N 29°35' W 091°14'1512.8
2014-Oct-23 14:22N 29°22' W 091°23'4 0.6
2014-Oct-23 08:20N 29°19' W 091°26'1215.1
2014-Oct-23 07:33N 29°28' W 091°17'1313.0
2014-Oct-23 06:33N 29°40' W 091°14'2 1.8
2014-Oct-23 05:33N 29°41' W 091°12'0 0.0
2014-Oct-23 04:33N 29°41' W 091°12'0 0.0
2014-Oct-23 03:33N 29°41' W 091°12'0 0.0
2014-Oct-23 02:33N 29°41' W 091°12'0 0.0
2014-Oct-23 01:33N 29°41' W 091°12'0 0.0
2014-Oct-23 00:33N 29°41' W 091°12'0 0.0
2014-Oct-22 23:34N 29°41' W 091°12'0 0.0
2014-Oct-22 22:33N 29°41' W 091°12'0 0.0
2014-Oct-22 21:33N 29°41' W 091°12'0 0.0
2014-Oct-22 20:33N 29°41' W 091°12'2 2.0
2014-Oct-22 19:33N 29°40' W 091°14'1010.4
2014-Oct-22 18:33N 29°30' W 091°16'16 1.6
2014-Oct-22 08:33N 29°18' W 091°27'  
Track history (hours):
 
Tides and Currents Weather Stations Pressure Air Temp Water Temp Dewpoint Dewpoint Depression Visibility Wind Speed Wind Dir Waves Ship Positions

Invader

Owner: Nautical Investiment Corporation, Amelia, LA. More information available from US FCC via Universal Licensing System and Coast Guard Vessel Documentation Center.

Last reported at 2014-Nov-01 07:33 UTC. Time now 2014-Nov-01 08:21 UTC.
Position N 29°41' W 091°13'.

Length 40 m; draft 3 m.

Type: Passenger vessel. MMSI: 367053990.

Date/timePositionNaut miles runAvg speedWind from/ knotsBaromVisibWave heightAir tempDewpointWater temp
2014-Nov-01 07:33N 29°41' W 091°13'1 0.9
2014-Nov-01 06:33N 29°41' W 091°12'0 0.0
2014-Nov-01 05:33N 29°41' W 091°12'2 2.0
2014-Nov-01 04:33N 29°40' W 091°14'1313.0
2014-Nov-01 03:32N 29°27' W 091°17'19 1.0
2014-Oct-31 08:04N 29°12' W 091°30'1019.4
2014-Oct-31 07:33N 29°21' W 091°24'1817.8
2014-Oct-31 06:34N 29°37' W 091°15'5 5.4
2014-Oct-31 05:34N 29°41' W 091°12'0 0.0
2014-Oct-31 04:34N 29°41' W 091°12'0 0.0
2014-Oct-31 03:34N 29°41' W 091°12'0 0.0
2014-Oct-31 02:34N 29°41' W 091°12'0 0.0
2014-Oct-31 01:33N 29°41' W 091°12'0 0.0
2014-Oct-31 00:33N 29°41' W 091°12'1 0.8
2014-Oct-30 23:33N 29°41' W 091°13'1211.6
2014-Oct-30 22:32N 29°30' W 091°16'14 0.9
2014-Oct-30 07:28N 29°19' W 091°26'1617.4
2014-Oct-30 06:33N 29°32' W 091°16'10 9.9
2014-Oct-30 05:33N 29°41' W 091°12'0 0.0
2014-Oct-30 04:33N 29°41' W 091°12'0 0.0
2014-Oct-30 03:33N 29°41' W 091°12'0 0.0
2014-Oct-30 02:33N 29°41' W 091°12'0 0.0
2014-Oct-30 01:33N 29°41' W 091°12'0 0.0
2014-Oct-30 00:33N 29°41' W 091°12'2 2.1
2014-Oct-29 23:34N 29°40' W 091°14'1212.0
2014-Oct-29 22:34N 29°28' W 091°17'8 0.5
2014-Oct-29 08:13N 29°23' W 091°23'1015.2
2014-Oct-29 07:33N 29°31' W 091°16'9 9.1
2014-Oct-29 06:33N 29°40' W 091°14'0 0.1
2014-Oct-29 05:34N 29°40' W 091°14'2 2.4
2014-Oct-29 04:33N 29°41' W 091°12'0 0.0
2014-Oct-29 03:33N 29°41' W 091°12'0 0.0
2014-Oct-29 02:33N 29°41' W 091°12'0 0.0
2014-Oct-29 01:33N 29°41' W 091°12'0 0.0
2014-Oct-29 00:33N 29°41' W 091°12'2 2.4
2014-Oct-28 23:33N 29°40' W 091°14'1514.8
2014-Oct-28 22:33N 29°26' W 091°20'17 1.3
2014-Oct-28 09:25N 29°12' W 091°30'1618.6
2014-Oct-28 08:33N 29°26' W 091°20'1515.3
2014-Oct-28 07:33N 29°40' W 091°14'3 2.5
2014-Oct-28 06:33N 29°41' W 091°12'3 3.0
2014-Oct-28 05:33N 29°39' W 091°14'1413.9
2014-Oct-28 04:33N 29°26' W 091°20'9 0.4
2014-Oct-27 07:30N 29°19' W 091°26'1617.3
2014-Oct-27 06:34N 29°33' W 091°15'9 9.2
2014-Oct-27 05:34N 29°41' W 091°12'0 0.1
2014-Oct-27 04:33N 29°41' W 091°12'0 0.0
2014-Oct-27 03:33N 29°41' W 091°12'0 0.0
2014-Oct-27 02:33N 29°41' W 091°12'0 0.0
2014-Oct-27 01:33N 29°41' W 091°12'0 0.0
2014-Oct-27 00:33N 29°41' W 091°12'0 0.0
2014-Oct-26 23:33N 29°41' W 091°12'0 0.0
2014-Oct-26 22:33N 29°41' W 091°12'0 0.0
2014-Oct-26 21:33N 29°41' W 091°12'0 0.0
2014-Oct-26 20:33N 29°41' W 091°12'0 0.0
2014-Oct-26 19:33N 29°41' W 091°12'1 1.2
2014-Oct-26 18:33N 29°41' W 091°13'1010.5
2014-Oct-26 17:34N 29°31' W 091°16'1514.9
2014-Oct-26 16:33N 29°19' W 091°26'2018.4
2014-Oct-26 15:29N 28°59' W 091°30'2 0.2
2014-Oct-26 08:30N 28°58' W 091°32'1718.3
2014-Oct-26 07:33N 29°16' W 091°29'1615.7
2014-Oct-26 06:33N 29°27' W 091°17'1313.0
2014-Oct-26 05:34N 29°40' W 091°14'2 2.3
2014-Oct-26 04:33N 29°41' W 091°12'0 0.0
2014-Oct-26 03:33N 29°41' W 091°12'0 0.0
2014-Oct-26 02:33N 29°41' W 091°12'0 0.0
2014-Oct-26 01:33N 29°41' W 091°12'0 0.0
2014-Oct-26 00:33N 29°41' W 091°12'0 0.0
2014-Oct-25 23:33N 29°41' W 091°12'2 2.5
2014-Oct-25 22:33N 29°40' W 091°14'2 2.1
2014-Oct-25 21:33N 29°41' W 091°12'0 0.4
2014-Oct-25 20:33N 29°41' W 091°12'10 9.8
2014-Oct-25 19:33N 29°32' W 091°16'16 1.4
2014-Oct-25 08:33N 29°19' W 091°26'1919.3
2014-Oct-25 07:34N 29°35' W 091°14'7 6.6
2014-Oct-25 06:33N 29°41' W 091°12'0 0.0
2014-Oct-25 05:33N 29°41' W 091°12'0 0.0
2014-Oct-25 04:33N 29°41' W 091°12'0 0.0
2014-Oct-25 03:34N 29°41' W 091°12'0 0.0
2014-Oct-25 02:33N 29°41' W 091°12'0 0.0
2014-Oct-25 01:33N 29°41' W 091°12'1 0.9
2014-Oct-25 00:33N 29°41' W 091°13'1312.8
2014-Oct-24 23:34N 29°29' W 091°16'21 1.4
2014-Oct-24 08:24N 29°12' W 091°30'1618.5
2014-Oct-24 07:33N 29°25' W 091°21'1514.6
2014-Oct-24 06:34N 29°38' W 091°14'4 3.6
2014-Oct-24 05:33N 29°41' W 091°12'0 0.0
2014-Oct-24 04:34N 29°41' W 091°12'0 0.0
2014-Oct-24 03:34N 29°41' W 091°12'0 0.0
2014-Oct-24 02:33N 29°41' W 091°12'0 0.0
2014-Oct-24 01:34N 29°41' W 091°12'0 0.0
2014-Oct-24 00:33N 29°41' W 091°12'0 0.0
2014-Oct-23 23:34N 29°41' W 091°12'0 0.0
2014-Oct-23 22:33N 29°41' W 091°12'0 0.0
2014-Oct-23 21:33N 29°41' W 091°12'0 0.0
2014-Oct-23 20:34N 29°41' W 091°12'0 0.0
2014-Oct-23 19:33N 29°41' W 091°12'0 0.0
2014-Oct-23 18:34N 29°41' W 091°12'0 0.0
2014-Oct-23 17:34N 29°41' W 091°12'0 0.0
2014-Oct-23 16:33N 29°41' W 091°12'7 6.9
2014-Oct-23 15:33N 29°35' W 091°14'1512.8
2014-Oct-23 14:22N 29°22' W 091°23'4 0.6
2014-Oct-23 08:20N 29°19' W 091°26'1215.1
2014-Oct-23 07:33N 29°28' W 091°17'1313.0
2014-Oct-23 06:33N 29°40' W 091°14'2 1.8
2014-Oct-23 05:33N 29°41' W 091°12'0 0.0
2014-Oct-23 04:33N 29°41' W 091°12'0 0.0
2014-Oct-23 03:33N 29°41' W 091°12'0 0.0
2014-Oct-23 02:33N 29°41' W 091°12'0 0.0
2014-Oct-23 01:33N 29°41' W 091°12'0 0.0
2014-Oct-23 00:33N 29°41' W 091°12'0 0.0
2014-Oct-22 23:34N 29°41' W 091°12'0 0.0
2014-Oct-22 22:33N 29°41' W 091°12'0 0.0
2014-Oct-22 21:33N 29°41' W 091°12'0 0.0
2014-Oct-22 20:33N 29°41' W 091°12'2 2.0
2014-Oct-22 19:33N 29°40' W 091°14'1010.4
2014-Oct-22 18:33N 29°30' W 091°16'16 1.6
2014-Oct-22 08:33N 29°18' W 091°27'  

Dump ship's entire track history